Registration

All data are given in time UTC except for the places where it is expressly stated to the contrary, The data provided on this website are informative!!!


Actual Weather
 
General weather forecast

Storms are forecasted to occur over a large area with rain or hail.
kujlubellodzmazpodkpodlpomslaswiwarmalTHUNDERSTORMS (st.1)Disturbances in the operation of electrical, electronical devices.Interference in radio and satellite communications.Difficulties in troops deployment (patched roads through broken branches and trees).Threat to life because of lightning.Possibility of damage to military equipment.Fire risk. Disturbances in the operation of radiolocation devices.
Weather - Poland
10°C Szczecin 8°C Suwałki 10°C Warszawa 10°C Poznan
9°C Opole 8°C Kraków 9°C Rzeszów
More cities in Poland

Weather - Europe
11°C Berlin 11°C Paryz 13°C Bruksela 11°C Oslo
9°C Praga 14°C Zagrzeb
More cities in Europe

METAR EPCE 250230Z 26005KT 9999 -SHRA BKN005 OVC012TCU 09/09 Q1020 RMK 092 097 8/6=
METAR EPDA 250230Z 28010KT 250V310 9999 FEW019 OVC035 10/09 Q1020 RMK 104 091 8/2=
METAR EPDE 250230Z 25004KT 9999 BKN060 BKN090 10/08 Q1022 RMK 095 089 7/5=
METAR EPIR 250200Z 24006KT 9999 BKN060 09/08 Q1021 RMK 090 091 7/7=
METAR EPKS 250230Z 28007KT 5000 -RA BR OVC006 10/10 Q1022 RMK 095 100 8/8=
METAR EPLK 250230Z 26003KT 230V290 9999 SCT008 BKN034 OVC080 08/08 Q1022 RMK 076 100 8/4=
METAR EPLY 250230Z AUTO 24002KT 08/07 Q1022 RMK 080 096 ///=
METAR EPMB 250230Z 24005KT 8000 -DZ OVC020 10/09 Q1020 RMK 096 095 8/8=
METAR EPMI 250230Z 27006KT 240V300 8000 -SHRA BKN005 BKN013CB BKN017 09/09 Q1021 RMK 089 099 7/5=
METAR EPMM 250230Z 27002KT 8000 BKN047 07/07 Q1021 RMK 072 100 7/7=
METAR EPOK 250230Z 28004KT 9999 SCT012 OVC026 10/09 Q1020 RMK 097 097 8/3=
METAR EPPR 250230Z AUTO 24002KT VV080 10/09 Q1020 RMK 101 090 ///=
METAR EPPW 250230Z 26004KT 6000 -RA OVC009 09/09 Q1022 RMK 088 100 8/8=
METAR EPSN 250230Z 28008KT 5000 SHRA SCT006 BKN012CB OVC017 09/09 Q1021 RMK 094 100 8/4=
METAR EPTM 250200Z AUTO 22002KT VV158 08/06 Q1022 RMK 075 093 ///=


 

Copyright©2007 HS-PAF All rights reserved.